Weather at Lim Chu Kang Road (Tengah Highway Strip)

Public forecast

Using degrees Celsius for public forecast. Weather courtesy of forecast.io.

Closest aviation weather report (METAR) to Lim Chu Kang Road (Tengah Highway Strip)

Closest report is Seletar Airport, 10.2 nm (18.9 km) E.

2024/06/14 16:00 (retrieved 26 minutes ago)

WSSL 141600Z VRB01KT 9999 FEW018 BKN300 26/25 Q1009

Closest aviation forecast (TAF) to Lim Chu Kang Road (Tengah Highway Strip)

Closest forecast is Seletar Airport, 10.2 nm (18.9 km) E.

2024/06/14 12:09 (retrieved 4 hours ago)

TAF WSSL 141100Z 1412/1518 20007KT 9999 FEW015 SCT020 TEMPO 1505/1508 3000 TSRA FEW012CB BKN015